Time;durP1;ratioP1;P1;durP2;ratioP2;P2;SDS_P1;SDS_P2;PMS_P1;PMS_P2;Temp;Humidity;BMP_temperature;BMP_pressure;BME280_temperature;BME280_humidity;BME280_pressure;Samples;Min_cycle;Max_cycle;Signal;HPM_P1;HPM_P2
2021/01/20 00:01:27;;;;;;;1.67;0.98;;;;;;;2.02;69.40;98342.81;5013635;28;20435;-69
2021/01/20 00:03:53;;;;;;;1.63;0.70;;;;;;;2.16;69.81;98355.56;5014548;28;20372;-69
2021/01/20 00:06:18;;;;;;;1.73;0.98;;;;;;;2.03;70.20;98363.19;5004964;28;20050;-71
2021/01/20 00:08:43;;;;;;;2.40;1.00;;;;;;;2.04;69.70;98352.31;5010986;28;20026;-69
2021/01/20 00:11:09;;;;;;;2.63;1.38;;;;;;;2.07;69.84;98338.69;5014374;28;20539;-69
2021/01/20 00:13:34;;;;;;;2.42;1.10;;;;;;;1.97;69.84;98325.47;5011944;28;20108;-69
2021/01/20 00:15:59;;;;;;;2.85;1.08;;;;;;;2.03;70.41;98337.34;5002045;28;20083;-70
2021/01/20 00:18:24;;;;;;;2.53;0.88;;;;;;;2.07;70.44;98332.50;5001063;28;20025;-70
2021/01/20 00:20:50;;;;;;;2.45;1.05;;;;;;;2.02;70.33;98334.81;5010709;28;20091;-69
2021/01/20 00:23:15;;;;;;;1.15;0.80;;;;;;;2.10;70.44;98333.03;5012517;28;20373;-69
2021/01/20 00:25:41;;;;;;;2.25;1.02;;;;;;;2.16;69.89;98308.34;4997450;28;20030;-69
2021/01/20 00:28:06;;;;;;;1.90;0.70;;;;;;;2.21;69.84;98331.91;4995233;28;20168;-69
2021/01/20 00:30:32;;;;;;;3.33;1.08;;;;;;;2.21;70.43;98317.72;4996619;28;20018;-70
2021/01/20 00:33:00;;;;;;;1.83;0.90;;;;;;;2.20;70.38;98322.19;4994765;28;20057;-69
2021/01/20 00:35:25;;;;;;;2.03;0.90;;;;;;;2.24;70.33;98307.56;5004378;28;20104;-69
2021/01/20 00:37:51;;;;;;;2.08;0.90;;;;;;;2.19;70.39;98308.03;5011887;28;20491;-71
2021/01/20 00:40:17;;;;;;;2.05;0.93;;;;;;;2.27;70.50;98309.88;5012275;28;20839;-70
2021/01/20 00:42:43;;;;;;;0.93;0.65;;;;;;;2.13;70.79;98287.34;5010900;28;20033;-69
2021/01/20 00:45:09;;;;;;;1.55;0.90;;;;;;;2.23;70.45;98297.88;5001047;28;20025;-69
2021/01/20 00:47:34;;;;;;;2.90;0.98;;;;;;;2.04;71.28;98298.97;4991340;28;20117;-70
2021/01/20 00:50:00;;;;;;;1.13;0.73;;;;;;;1.95;72.47;98311.44;4992090;28;20247;-69
2021/01/20 00:52:25;;;;;;;1.30;0.73;;;;;;;1.93;71.98;98315.28;5021449;28;20030;-69
2021/01/20 00:54:50;;;;;;;2.08;0.75;;;;;;;1.89;72.42;98300.59;5021490;28;20064;-72
2021/01/20 00:57:15;;;;;;;1.42;0.82;;;;;;;1.88;72.29;98309.59;5018180;28;20104;-70
2021/01/20 00:59:41;;;;;;;1.83;0.60;;;;;;;1.73;73.13;98291.53;4996106;28;20027;-70
2021/01/20 01:02:06;;;;;;;1.30;0.77;;;;;;;1.79;72.91;98295.38;5010390;28;20022;-71
2021/01/20 01:04:32;;;;;;;1.85;0.80;;;;;;;1.87;72.58;98273.25;5008260;28;20038;-71
2021/01/20 01:06:57;;;;;;;3.05;1.00;;;;;;;1.98;72.88;98291.63;5006166;28;20022;-69
2021/01/20 01:09:23;;;;;;;1.60;0.80;;;;;;;2.01;72.76;98291.28;5006784;28;20029;-69
2021/01/20 01:11:48;;;;;;;1.35;0.75;;;;;;;2.06;73.00;98283.63;5009259;28;20061;-70
2021/01/20 01:14:13;;;;;;;1.42;0.80;;;;;;;2.02;73.08;98301.00;5001437;28;20092;-70
2021/01/20 01:16:39;;;;;;;3.45;0.95;;;;;;;1.92;73.51;98292.28;4995668;28;20026;-70
2021/01/20 01:19:04;;;;;;;1.65;0.85;;;;;;;1.88;74.08;98288.25;4996715;28;20029;-70
2021/01/20 01:21:29;;;;;;;1.38;0.70;;;;;;;1.75;74.65;98292.19;5009706;28;20029;-69
2021/01/20 01:23:55;;;;;;;2.33;1.00;;;;;;;1.83;74.22;98285.22;5010223;28;20034;-69
2021/01/20 01:26:20;;;;;;;1.55;0.85;;;;;;;1.83;74.28;98290.56;5004262;28;20053;-71
2021/01/20 01:28:45;;;;;;;1.92;1.00;;;;;;;1.89;74.23;98293.44;4991291;28;20057;-69
2021/01/20 01:31:11;;;;;;;1.63;0.80;;;;;;;1.86;74.36;98292.91;5008701;28;20129;-70
2021/01/20 01:33:36;;;;;;;2.15;1.00;;;;;;;1.69;74.86;98292.00;5010336;28;20387;-69
2021/01/20 01:36:02;;;;;;;2.65;0.98;;;;;;;1.49;76.37;98278.06;5006959;28;20026;-70
2021/01/20 01:38:27;;;;;;;2.40;1.08;;;;;;;1.62;75.99;98280.28;5009390;28;20017;-70
2021/01/20 01:40:53;;;;;;;2.95;1.00;;;;;;;1.45;76.01;98263.41;5010208;28;20053;-70
2021/01/20 01:43:18;;;;;;;2.45;0.82;;;;;;;1.48;76.42;98281.72;5001950;28;20113;-70
2021/01/20 01:45:43;;;;;;;2.10;0.90;;;;;;;1.53;76.12;98268.75;5001922;28;20033;-70
2021/01/20 01:48:09;;;;;;;1.85;0.95;;;;;;;1.59;75.86;98268.13;5018276;28;20080;-71
2021/01/20 01:50:34;;;;;;;2.67;0.95;;;;;;;1.53;76.32;98266.94;4989810;28;20033;-71
2021/01/20 01:53:00;;;;;;;1.25;0.77;;;;;;;1.29;76.47;98254.31;5010001;28;20018;-70
2021/01/20 01:55:25;;;;;;;3.38;0.90;;;;;;;1.24;77.22;98263.78;5007237;28;20033;-71
2021/01/20 01:57:50;;;;;;;1.75;0.82;;;;;;;1.30;77.71;98265.81;5019905;28;20065;-71
2021/01/20 02:00:16;;;;;;;1.40;0.60;;;;;;;1.17;78.07;98263.56;4995516;28;20030;-71
2021/01/20 02:02:41;;;;;;;1.65;0.80;;;;;;;1.15;78.61;98272.69;5005625;28;20026;-71
2021/01/20 02:05:07;;;;;;;2.00;0.90;;;;;;;1.09;78.19;98256.34;4996255;28;20064;-70
2021/01/20 02:07:34;;;;;;;3.30;1.00;;;;;;;1.02;78.15;98258.00;5009408;28;20030;-70
2021/01/20 02:10:01;;;;;;;1.33;0.90;;;;;;;1.18;78.52;98280.38;5012237;28;20026;-70
2021/01/20 02:12:49;;;;;;;1.80;1.00;;;;;;;1.06;78.46;98250.50;4999584;28;20045;-70
2021/01/20 02:15:20;;;;;;;1.60;0.98;;;;;;;1.35;78.08;98268.00;5006361;28;20049;-70
2021/01/20 02:17:58;;;;;;;1.30;0.70;;;;;;;1.57;77.29;98267.44;5019780;28;20033;-71
2021/01/20 02:20:23;;;;;;;2.30;0.98;;;;;;;1.74;76.46;98263.84;5024786;28;20053;-71
2021/01/20 02:22:52;;;;;;;2.40;1.05;;;;;;;1.66;76.84;98250.50;5023036;28;20109;-70
2021/01/20 02:25:26;;;;;;;1.52;0.80;;;;;;;1.80;76.18;98256.22;4998695;28;20105;-71
2021/01/20 02:28:13;;;;;;;3.70;1.10;;;;;;;1.79;76.73;98254.56;5008800;28;20112;-71
2021/01/20 02:30:41;;;;;;;1.83;0.80;;;;;;;1.87;76.44;98255.41;5008678;28;20514;-70
2021/01/20 02:33:08;;;;;;;1.02;0.57;;;;;;;1.85;76.36;98243.22;5010286;28;20049;-70
2021/01/20 02:35:34;;;;;;;1.48;0.90;;;;;;;1.78;76.47;98243.03;4997883;28;20038;-70
2021/01/20 02:38:02;;;;;;;4.40;1.20;;;;;;;1.72;77.17;98252.50;5012501;28;20569;-70
2021/01/20 02:40:28;;;;;;;5.35;0.93;;;;;;;1.80;76.57;98258.88;5014113;28;20024;-69
2021/01/20 02:42:53;;;;;;;1.90;0.80;;;;;;;1.75;77.36;98264.69;4998742;28;20067;-69
2021/01/20 02:45:19;;;;;;;2.50;0.90;;;;;;;1.60;77.71;98250.28;4993492;28;20121;-71
2021/01/20 02:47:47;;;;;;;3.00;1.05;;;;;;;1.52;78.00;98267.09;5012410;28;20574;-70
2021/01/20 02:50:13;;;;;;;2.10;1.00;;;;;;;1.46;77.99;98257.88;5010662;28;20041;-70
2021/01/20 02:52:57;;;;;;;2.92;1.10;;;;;;;1.62;77.66;98269.63;5013351;28;20029;-71
2021/01/20 02:55:26;;;;;;;1.25;0.90;;;;;;;1.71;77.50;98258.03;5011094;28;20025;-71
2021/01/20 02:58:06;;;;;;;;;;;;;;;1.64;77.68;98259.66;5013015;28;20021;-70
2021/01/20 03:00:32;;;;;;;;;;;;;;;1.63;77.67;98264.16;5012056;28;20391;-70
2021/01/20 03:03:03;;;;;;;1.50;0.68;;;;;;;1.48;77.64;98252.41;5011064;28;19917;-71
2021/01/20 03:05:29;;;;;;;3.70;1.00;;;;;;;1.49;77.65;98268.25;5012266;28;20545;-70
2021/01/20 03:07:56;;;;;;;1.20;0.80;;;;;;;1.46;78.41;98254.41;5005752;28;20033;-70
2021/01/20 03:10:23;;;;;;;2.20;0.80;;;;;;;1.40;78.96;98247.88;4993700;28;20042;-71
2021/01/20 03:12:48;;;;;;;1.67;1.00;;;;;;;1.39;78.85;98245.34;5007052;28;20036;-70
2021/01/20 03:15:28;;;;;;;1.27;0.80;;;;;;;1.25;79.07;98236.13;5009432;28;20045;-70
2021/01/20 03:17:53;;;;;;;;;;;;;;;1.44;78.35;98241.25;5008097;28;20574;-71
2021/01/20 03:20:18;;;;;;;1.10;0.70;;;;;;;1.73;77.38;98245.38;4998282;28;19914;-70
2021/01/20 03:22:43;;;;;;;1.55;0.90;;;;;;;1.86;76.81;98244.88;4995945;28;20030;-70
2021/01/20 03:25:10;;;;;;;1.13;0.77;;;;;;;1.96;76.16;98211.75;5008561;28;20072;-70
2021/01/20 03:27:35;;;;;;;1.42;1.00;;;;;;;2.15;75.83;98225.81;5004010;28;20053;-71
2021/01/20 03:30:00;;;;;;;1.85;1.20;;;;;;;2.22;75.65;98233.97;5001227;28;20034;-71
2021/01/20 03:32:26;;;;;;;2.17;1.00;;;;;;;2.27;75.34;98229.81;5013732;28;20041;-71
2021/01/20 03:34:51;;;;;;;1.67;0.95;;;;;;;2.24;75.64;98226.66;5017652;28;20095;-70
2021/01/20 03:37:16;;;;;;;0.93;0.60;;;;;;;2.27;75.44;98221.81;5014563;28;20106;-70
2021/01/20 03:39:42;;;;;;;0.95;0.63;;;;;;;2.22;75.43;98208.13;5015546;28;20072;-71
2021/01/20 03:42:08;;;;;;;2.10;0.82;;;;;;;2.28;75.12;98220.81;5012242;28;20037;-70
2021/01/20 03:44:34;;;;;;;2.28;0.90;;;;;;;2.28;74.94;98204.81;5005307;28;20058;-71
2021/01/20 03:46:59;;;;;;;2.30;0.80;;;;;;;2.35;74.84;98224.47;4998962;28;20128;-70
2021/01/20 03:49:24;;;;;;;1.00;0.68;;;;;;;2.44;74.59;98217.34;5025836;28;20068;-70
2021/01/20 03:51:49;;;;;;;1.33;0.80;;;;;;;2.43;74.41;98204.97;4995801;28;20046;-70
2021/01/20 03:54:15;;;;;;;2.22;0.80;;;;;;;2.44;74.72;98212.00;5009936;28;20056;-70
2021/01/20 03:56:40;;;;;;;2.08;1.00;;;;;;;2.31;75.09;98201.81;5000791;28;20096;-71
2021/01/20 03:59:06;;;;;;;2.13;0.82;;;;;;;2.26;75.10;98208.66;5004916;28;20569;-68
2021/01/20 04:01:32;;;;;;;2.25;1.00;;;;;;;2.12;75.97;98207.44;4994979;28;20038;-71
2021/01/20 04:03:57;;;;;;;2.97;1.00;;;;;;;1.94;76.29;98216.44;5012077;28;20627;-70
2021/01/20 04:06:22;;;;;;;2.28;0.93;;;;;;;1.95;76.56;98206.59;5011713;28;20030;-71
2021/01/20 04:08:50;;;;;;;1.60;0.90;;;;;;;1.87;76.56;98193.22;5012713;28;20037;-70
2021/01/20 04:11:16;;;;;;;2.33;1.00;;;;;;;1.73;77.51;98211.53;5012270;28;20017;-70
2021/01/20 04:13:41;;;;;;;1.55;1.00;;;;;;;1.70;77.54;98208.34;5008300;28;20100;-69
2021/01/20 04:16:06;;;;;;;1.85;1.10;;;;;;;1.74;77.48;98215.03;5008128;28;20026;-70
2021/01/20 04:18:31;;;;;;;2.25;1.00;;;;;;;1.65;77.69;98190.19;5005697;28;20023;-70
2021/01/20 04:20:57;;;;;;;2.28;1.10;;;;;;;1.73;77.56;98195.53;5015549;28;20175;-70
2021/01/20 04:23:22;;;;;;;1.77;0.95;;;;;;;1.77;77.50;98193.38;5023642;28;20041;-70
2021/01/20 04:25:47;;;;;;;2.13;0.98;;;;;;;1.73;77.74;98194.69;5023143;28;20033;-70
2021/01/20 04:28:12;;;;;;;1.88;1.08;;;;;;;1.70;77.51;98193.19;5012214;28;20039;-70
2021/01/20 04:30:38;;;;;;;2.35;1.05;;;;;;;1.51;78.26;98188.09;5014426;28;20057;-70
2021/01/20 04:33:03;;;;;;;3.75;1.10;;;;;;;1.50;78.45;98183.78;5022625;28;20082;-72
2021/01/20 04:35:28;;;;;;;2.47;1.38;;;;;;;1.54;78.50;98193.94;5022727;28;20030;-71
2021/01/20 04:37:54;;;;;;;2.53;1.55;;;;;;;1.45;78.16;98178.94;5016517;28;20113;-71
2021/01/20 04:40:20;;;;;;;1.80;1.08;;;;;;;1.69;78.14;98185.34;5025496;28;20335;-70
2021/01/20 04:42:45;;;;;;;5.30;2.00;;;;;;;1.72;77.52;98180.50;5008432;28;20033;-71
2021/01/20 04:45:11;;;;;;;8.40;3.60;;;;;;;1.77;78.08;98182.69;5016278;28;20080;-72
2021/01/20 04:47:36;;;;;;;12.10;4.55;;;;;;;1.66;78.47;98183.00;5022374;28;20082;-71
2021/01/20 04:50:03;;;;;;;7.78;3.42;;;;;;;1.61;78.68;98186.16;5017025;28;20492;-71
2021/01/20 04:52:31;;;;;;;6.15;2.70;;;;;;;1.64;78.83;98177.00;5014622;28;20048;-70
2021/01/20 04:54:57;;;;;;;4.65;2.10;;;;;;;1.62;78.08;98178.97;5016758;28;20049;-70
2021/01/20 04:57:23;;;;;;;5.30;2.75;;;;;;;1.68;78.00;98160.50;5016809;28;20018;-75
2021/01/20 04:59:54;;;;;;;3.85;2.05;;;;;;;1.64;77.76;98169.81;5028492;28;20009;-80
2021/01/20 05:02:28;;;;;;;2.60;1.52;;;;;;;1.71;77.85;98167.34;5034965;28;20033;-79
2021/01/20 05:04:53;;;;;;;3.38;1.73;;;;;;;1.66;77.55;98173.16;5023867;28;20020;-82
2021/01/20 05:07:19;;;;;;;3.28;2.00;;;;;;;1.65;77.84;98160.84;5028192;28;20034;-78
2021/01/20 05:09:45;;;;;;;4.85;2.28;;;;;;;1.72;77.61;98171.69;5031898;28;20040;-78
2021/01/20 05:12:32;;;;;;;2.72;1.10;;;;;;;1.65;77.68;98165.31;5032772;28;20022;-75
2021/01/20 05:14:57;;;;;;;1.98;1.20;;;;;;;1.49;78.66;98147.44;5032432;28;20104;-79
2021/01/20 05:17:22;;;;;;;2.05;1.10;;;;;;;1.53;78.20;98164.81;5026758;28;20003;-79
2021/01/20 05:19:48;;;;;;;3.92;1.17;;;;;;;1.53;78.28;98156.81;5020855;28;20109;-75
2021/01/20 05:22:13;;;;;;;3.88;1.23;;;;;;;1.54;78.27;98167.28;5031755;28;20041;-74
2021/01/20 05:24:38;;;;;;;2.45;1.30;;;;;;;1.56;77.86;98158.31;5026941;28;20472;-76
2021/01/20 05:27:05;;;;;;;3.28;1.10;;;;;;;1.69;77.77;98172.84;5029447;28;20022;-75
2021/01/20 05:29:31;;;;;;;1.45;1.00;;;;;;;1.64;77.34;98147.66;5027364;28;20105;-72
2021/01/20 05:32:19;;;;;;;6.22;1.00;;;;;;;1.88;77.10;98169.03;5018870;28;20010;-77
2021/01/20 05:34:58;;;;;;;2.70;1.10;;;;;;;2.00;76.95;98176.75;5024561;28;20098;-73
2021/01/20 05:37:23;;;;;;;4.22;1.00;;;;;;;1.98;76.94;98169.72;5011026;28;20022;-72
2021/01/20 05:39:48;;;;;;;1.00;0.80;;;;;;;1.95;76.12;98153.22;5016192;28;20041;-78
2021/01/20 05:42:14;;;;;;;1.02;0.82;;;;;;;2.03;76.08;98131.91;5029193;28;20041;-76
2021/01/20 05:44:40;;;;;;;2.38;1.20;;;;;;;2.29;75.48;98165.59;5036008;28;20029;-75
2021/01/20 05:47:13;;;;;;;3.53;1.20;;;;;;;2.44;75.65;98158.59;5025055;28;20042;-73
2021/01/20 05:49:39;;;;;;;5.22;1.15;;;;;;;2.47;75.21;98144.09;5021193;28;20041;-73
2021/01/20 05:52:19;;;;;;;1.90;1.00;;;;;;;2.56;74.86;98148.41;5019378;28;20046;-74
2021/01/20 05:54:44;;;;;;;4.93;1.30;;;;;;;2.59;74.63;98150.72;5012768;28;20018;-73
2021/01/20 05:57:14;;;;;;;2.92;1.40;;;;;;;2.67;74.00;98156.06;5024890;28;20033;-75
2021/01/20 05:59:41;;;;;;;3.35;1.40;;;;;;;2.67;74.20;98142.69;5034642;28;20057;-77
2021/01/20 06:02:08;;;;;;;2.40;1.05;;;;;;;2.80;73.47;98129.69;5033857;28;20037;-73
2021/01/20 06:04:35;;;;;;;4.05;1.50;;;;;;;2.81;73.60;98141.19;5030779;28;20088;-82
2021/01/20 06:07:06;;;;;;;3.10;1.55;;;;;;;2.89;73.38;98135.81;5014729;28;20022;-77
2021/01/20 06:09:33;;;;;;;2.00;1.33;;;;;;;2.96;72.89;98146.66;5010737;28;20464;-78
2021/01/20 06:11:59;;;;;;;2.22;1.25;;;;;;;3.02;72.91;98140.63;4994850;28;20030;-71
2021/01/20 06:14:24;;;;;;;3.28;1.25;;;;;;;3.03;72.64;98142.28;4997657;28;20030;-72
2021/01/20 06:16:55;;;;;;;3.65;1.20;;;;;;;3.18;72.37;98145.91;5000947;28;20021;-73
2021/01/20 06:19:23;;;;;;;2.13;1.20;;;;;;;3.20;71.92;98138.56;5014902;28;20033;-71
2021/01/20 06:21:49;;;;;;;2.08;0.65;;;;;;;3.45;70.60;98135.78;5010019;28;20041;-70
2021/01/20 06:24:24;;;;;;;2.92;0.90;;;;;;;3.61;70.22;98141.03;5012864;28;20476;-73
2021/01/20 06:26:56;;;;;;;2.25;0.85;;;;;;;3.59;69.31;98111.00;5006976;28;20027;-74
2021/01/20 06:29:26;;;;;;;0.85;0.60;;;;;;;3.83;68.71;98127.91;5000972;28;20053;-74
2021/01/20 06:31:54;;;;;;;1.10;0.75;;;;;;;3.72;68.91;98111.25;5012616;28;20038;-73
2021/01/20 06:34:20;;;;;;;5.40;0.70;;;;;;;3.73;69.12;98115.56;5007066;28;20032;-76
2021/01/20 06:36:45;;;;;;;1.15;0.70;;;;;;;3.66;69.29;98105.75;5025235;28;20021;-77
2021/01/20 06:39:25;;;;;;;2.67;1.02;;;;;;;3.91;68.90;98134.03;5033663;28;20132;-75
2021/01/20 06:41:51;;;;;;;2.70;0.80;;;;;;;3.79;68.78;98118.53;5007085;28;20046;-77
2021/01/20 06:44:16;;;;;;;2.45;0.80;;;;;;;3.78;68.89;98122.25;5016106;28;20057;-72
2021/01/20 06:46:59;;;;;;;1.63;0.73;;;;;;;3.79;68.84;98130.06;5026690;28;20025;-71
2021/01/20 06:49:26;;;;;;;1.85;0.80;;;;;;;3.75;69.27;98112.72;5011858;28;20038;-69
2021/01/20 06:52:12;;;;;;;2.63;1.55;;;;;;;3.72;69.52;98121.94;5007159;28;20102;-71
2021/01/20 06:54:42;;;;;;;4.15;2.17;;;;;;;3.63;69.59;98116.81;5003839;28;20061;-72
2021/01/20 06:57:25;;;;;;;2.60;1.77;;;;;;;3.69;69.35;98127.66;5005279;28;20035;-75
2021/01/20 07:00:05;;;;;;;1.67;1.00;;;;;;;3.71;69.18;98130.97;5012573;28;20443;-75
2021/01/20 07:02:31;;;;;;;3.97;1.10;;;;;;;3.73;69.21;98118.25;5002826;28;20022;-75
2021/01/20 07:04:56;;;;;;;1.73;1.20;;;;;;;3.80;68.76;98117.53;5002103;28;20021;-76
2021/01/20 07:07:53;;;;;;;4.10;1.00;;;;;;;3.82;69.12;98126.22;4997022;28;20443;-75
2021/01/20 07:10:24;;;;;;;3.38;1.10;;;;;;;3.68;69.30;98109.91;4994731;28;20022;-74
2021/01/20 07:13:19;;;;;;;2.17;0.98;;;;;;;3.82;68.76;98113.66;5012318;28;20384;-72
2021/01/20 07:15:51;;;;;;;2.42;1.13;;;;;;;3.84;68.95;98113.50;5002299;28;20028;-78
2021/01/20 07:18:17;;;;;;;2.08;1.15;;;;;;;3.79;69.26;98110.53;5009346;28;20072;-75
2021/01/20 07:20:44;;;;;;;1.58;1.00;;;;;;;3.74;68.89;98101.16;5012992;28;20420;-75
2021/01/20 07:23:10;;;;;;;3.75;1.20;;;;;;;3.70;68.87;98099.88;5013196;28;20033;-72
2021/01/20 07:25:35;;;;;;;2.70;1.50;;;;;;;3.72;68.87;98081.81;4997281;28;20029;-74
2021/01/20 07:28:01;;;;;;;2.88;1.10;;;;;;;3.82;69.03;98104.81;4999163;28;20030;-74
2021/01/20 07:30:26;;;;;;;2.55;1.17;;;;;;;3.79;68.67;98091.78;4996664;28;20368;-70
2021/01/20 07:32:52;;;;;;;3.15;1.33;;;;;;;3.92;68.56;98095.53;5007784;28;20622;-70
2021/01/20 07:35:18;;;;;;;3.75;1.80;;;;;;;3.95;68.73;98105.06;5012110;28;20385;-75
2021/01/20 07:37:45;;;;;;;1.52;0.90;;;;;;;4.06;67.52;98096.63;5008658;28;20025;-74
2021/01/20 07:40:12;;;;;;;2.53;0.90;;;;;;;4.06;67.66;98080.56;5008563;28;20029;-77
2021/01/20 07:42:40;;;;;;;2.05;1.02;;;;;;;4.19;67.15;98093.31;4999894;28;20080;-74
2021/01/20 07:45:07;;;;;;;2.15;1.20;;;;;;;4.28;67.32;98094.94;5007087;28;20038;-68
2021/01/20 07:47:46;;;;;;;2.03;1.00;;;;;;;4.36;67.04;98097.53;5000588;28;20026;-73
2021/01/20 07:50:12;;;;;;;1.60;0.93;;;;;;;4.45;65.92;98100.13;5011568;28;20033;-68
2021/01/20 07:52:38;;;;;;;3.08;1.30;;;;;;;4.48;66.09;98103.28;5011142;28;20033;-69
2021/01/20 07:55:14;;;;;;;2.65;1.08;;;;;;;4.59;65.93;98085.94;5010147;28;20037;-68
2021/01/20 07:57:39;;;;;;;2.72;1.30;;;;;;;4.69;64.41;98088.34;4994060;28;20022;-69
2021/01/20 08:00:07;;;;;;;4.32;1.20;;;;;;;4.71;64.40;98075.59;5024805;28;20396;-69
2021/01/20 08:02:33;;;;;;;2.70;1.17;;;;;;;4.82;63.89;98092.06;5005169;28;20473;-75
2021/01/20 08:05:02;;;;;;;2.60;0.98;;;;;;;4.99;63.91;98089.19;5015843;28;20057;-74
2021/01/20 08:07:27;;;;;;;;;;;;;;;5.06;63.70;98087.44;5016927;28;20034;-70
2021/01/20 08:09:53;;;;;;;2.60;0.80;;;;;;;5.15;62.90;98080.94;5014486;28;19952;-68
2021/01/20 08:12:24;;;;;;;2.20;0.88;;;;;;;5.20;63.14;98085.75;5025538;28;20480;-69
2021/01/20 08:14:51;;;;;;;3.47;1.02;;;;;;;5.16;63.09;98074.59;5000217;28;20037;-70
2021/01/20 08:17:17;;;;;;;3.83;0.90;;;;;;;5.27;62.89;98078.63;5007120;28;20904;-77
2021/01/20 08:19:43;;;;;;;1.80;1.10;;;;;;;5.15;62.54;98053.31;5009969;28;20040;-74
2021/01/20 08:22:14;;;;;;;1.40;0.70;;;;;;;5.41;62.36;98075.09;5000507;28;20476;-68
2021/01/20 08:24:47;;;;;;;1.38;0.70;;;;;;;5.40;62.51;98077.97;5000880;28;20241;-69
2021/01/20 08:27:13;;;;;;;2.00;0.70;;;;;;;5.46;62.27;98078.03;5004790;28;20032;-76
2021/01/20 08:29:52;;;;;;;2.17;0.93;;;;;;;5.53;61.77;98077.28;4996277;28;20042;-71
2021/01/20 08:32:18;;;;;;;1.98;1.02;;;;;;;5.51;62.68;98073.97;5006758;28;20060;-71
2021/01/20 08:34:45;;;;;;;2.13;0.85;;;;;;;5.54;62.44;98076.25;5006135;28;20068;-76
2021/01/20 08:37:13;;;;;;;1.70;0.88;;;;;;;5.42;62.31;98060.66;5009692;28;20447;-76
2021/01/20 08:39:53;;;;;;;1.95;0.95;;;;;;;5.42;62.13;98060.66;5007424;28;20396;-77
2021/01/20 08:42:29;;;;;;;15.35;3.67;;;;;;;5.52;62.12;98076.44;5008108;28;20468;-75
2021/01/20 08:45:11;;;;;;;8.63;2.45;;;;;;;5.65;61.66;98068.53;4994669;28;20049;-76
2021/01/20 08:48:05;;;;;;;3.25;1.60;;;;;;;5.61;61.49;98072.63;5006370;28;20029;-76
2021/01/20 08:50:32;;;;;;;2.47;1.10;;;;;;;5.69;61.28;98066.31;5013185;28;20129;-72
2021/01/20 08:52:58;;;;;;;3.38;1.17;;;;;;;5.81;61.37;98063.94;5006367;28;20045;-68
2021/01/20 08:55:23;;;;;;;2.53;1.20;;;;;;;5.79;61.46;98072.22;4994423;28;20038;-77
2021/01/20 08:58:18;;;;;;;4.63;1.42;;;;;;;5.89;60.95;98062.00;4999784;28;20036;-72
2021/01/20 09:00:45;;;;;;;3.55;1.38;;;;;;;5.92;61.22;98077.72;4994279;28;20033;-72
2021/01/20 09:03:18;;;;;;;4.65;1.55;;;;;;;5.97;60.46;98090.56;5004777;28;20036;-76
2021/01/20 09:05:45;;;;;;;3.65;1.38;;;;;;;5.87;60.89;98053.28;5004715;28;20133;-72
2021/01/20 09:08:10;;;;;;;2.85;1.30;;;;;;;5.92;60.39;98066.13;5007275;28;20803;-69
2021/01/20 09:10:36;;;;;;;5.45;1.42;;;;;;;5.91;61.10;98054.56;5009063;28;20034;-73
2021/01/20 09:13:02;;;;;;;6.32;1.90;;;;;;;5.95;61.26;98060.44;5006469;28;20396;-80
2021/01/20 09:15:28;;;;;;;2.53;1.25;;;;;;;5.92;60.63;98045.50;5016807;28;20034;-74
2021/01/20 09:17:59;;;;;;;3.47;1.33;;;;;;;5.91;61.45;98056.41;5007553;28;20026;-70
2021/01/20 09:20:25;;;;;;;7.18;1.95;;;;;;;5.94;61.09;98050.69;5003615;28;20038;-76
2021/01/20 09:22:50;;;;;;;9.68;1.98;;;;;;;5.89;61.37;98045.03;5008834;28;20017;-74
2021/01/20 09:25:16;;;;;;;6.22;2.05;;;;;;;6.00;61.01;98043.72;5011898;28;20025;-79
2021/01/20 09:27:41;;;;;;;6.47;1.80;;;;;;;5.99;60.64;98039.38;5000740;28;20105;-78
2021/01/20 09:30:07;;;;;;;4.53;1.77;;;;;;;5.96;61.26;98055.88;5013622;28;20033;-79
2021/01/20 09:32:37;;;;;;;4.03;1.60;;;;;;;6.12;60.93;98058.28;5010641;28;20096;-76
2021/01/20 09:35:04;;;;;;;;;;;;;;;6.19;60.80;98045.75;5009368;28;20026;-71
2021/01/20 09:37:29;;;;;;;4.05;1.55;;;;;;;6.08;60.77;98038.22;5007118;28;20004;-73
2021/01/20 09:39:55;;;;;;;4.32;2.03;;;;;;;6.11;60.67;98032.47;5009989;28;20113;-72
2021/01/20 09:42:20;;;;;;;6.75;2.75;;;;;;;6.27;60.56;98032.19;4997883;28;20109;-72
2021/01/20 09:44:45;;;;;;;7.63;2.92;;;;;;;6.31;60.54;98048.72;5000232;28;20046;-71
2021/01/20 09:47:10;;;;;;;7.57;2.97;;;;;;;6.30;59.82;98026.41;4990041;28;20030;-72
2021/01/20 09:49:36;;;;;;;3.83;2.20;;;;;;;6.34;59.57;98046.50;5009997;28;20037;-70
2021/01/20 09:52:02;;;;;;;5.18;2.45;;;;;;;6.31;59.86;98043.34;5000205;28;20070;-72
2021/01/20 09:54:28;;;;;;;4.38;1.67;;;;;;;6.40;59.47;98023.41;4996890;28;20100;-78
2021/01/20 09:56:53;;;;;;;4.32;1.83;;;;;;;6.29;60.14;98016.72;5009091;28;20225;-72
2021/01/20 09:59:18;;;;;;;3.90;1.65;;;;;;;6.46;59.84;98027.97;5007784;28;20030;-75
2021/01/20 10:01:43;;;;;;;5.40;1.80;;;;;;;6.51;59.40;98005.91;5009871;28;20399;-75
2021/01/20 10:04:09;;;;;;;2.88;1.52;;;;;;;6.73;59.09;98030.81;5005283;28;20073;-69
2021/01/20 10:06:34;;;;;;;2.92;1.67;;;;;;;6.66;59.81;98012.00;5003685;28;20018;-75
2021/01/20 10:08:59;;;;;;;5.10;2.13;;;;;;;6.85;59.53;98023.06;5006795;28;20580;-74
2021/01/20 10:11:24;;;;;;;3.60;2.28;;;;;;;6.88;59.40;98010.03;5008938;28;20018;-78
2021/01/20 10:13:50;;;;;;;4.75;1.98;;;;;;;7.00;59.11;98015.69;4998679;28;20095;-70
2021/01/20 10:16:15;;;;;;;3.65;1.85;;;;;;;7.15;58.34;98015.53;4991251;28;20038;-72
2021/01/20 10:18:42;;;;;;;3.97;1.92;;;;;;;7.29;58.05;98005.66;4991405;28;20108;-70
2021/01/20 10:21:07;;;;;;;4.95;1.80;;;;;;;7.42;57.67;97992.25;5005205;28;20068;-74
2021/01/20 10:23:32;;;;;;;5.85;2.00;;;;;;;7.77;57.27;97987.53;5003731;28;20419;-72
2021/01/20 10:25:58;;;;;;;2.92;1.30;;;;;;;8.01;56.08;98002.25;5002602;28;20041;-74
2021/01/20 10:28:23;;;;;;;2.50;1.40;;;;;;;8.35;55.34;97992.31;4997319;28;20037;-73
2021/01/20 10:30:51;;;;;;;3.25;1.58;;;;;;;8.77;54.02;97987.47;5005885;28;20494;-73
2021/01/20 10:33:16;;;;;;;4.35;1.90;;;;;;;8.83;54.04;97975.88;4996976;28;20030;-78
2021/01/20 10:35:42;;;;;;;4.93;1.90;;;;;;;9.04;52.94;97946.91;5005115;28;20392;-77
2021/01/20 10:38:07;;;;;;;5.22;2.42;;;;;;;9.69;52.04;97961.09;4998377;28;20513;-77
2021/01/20 10:40:32;;;;;;;3.72;2.17;;;;;;;10.30;50.63;97963.13;5007257;28;20034;-79
2021/01/20 10:42:58;;;;;;;3.00;1.60;;;;;;;10.38;50.33;97944.97;4999999;28;20041;-75
2021/01/20 10:45:23;;;;;;;4.68;2.05;;;;;;;11.11;48.50;97928.72;5005771;28;20029;-73
2021/01/20 10:47:48;;;;;;;6.00;1.85;;;;;;;11.32;48.00;97926.59;4995035;28;20117;-70
2021/01/20 10:50:13;;;;;;;2.83;1.80;;;;;;;11.75;47.71;97925.53;5006113;28;20026;-73
2021/01/20 10:52:39;;;;;;;7.22;2.50;;;;;;;11.91;47.56;97924.88;5005838;28;20063;-66
2021/01/20 10:55:04;;;;;;;3.75;1.85;;;;;;;11.74;47.53;97926.59;5003323;28;20034;-70
2021/01/20 10:57:30;;;;;;;5.85;1.65;;;;;;;11.39;47.93;97916.47;5004410;28;20052;-70
2021/01/20 10:59:56;;;;;;;4.53;2.08;;;;;;;11.32;47.45;97913.06;5004719;28;20369;-71
2021/01/20 11:02:22;;;;;;;5.55;1.60;;;;;;;10.83;48.13;97912.22;5003915;28;20042;-70
2021/01/20 11:04:47;;;;;;;3.75;1.50;;;;;;;11.39;47.10;97925.41;5003142;28;20477;-70
2021/01/20 11:07:12;;;;;;;5.35;1.40;;;;;;;11.17;47.46;97916.16;5008957;28;20037;-74
2021/01/20 11:09:38;;;;;;;3.25;1.70;;;;;;;10.34;49.09;97919.44;5020063;28;20029;-74
2021/01/20 11:12:03;;;;;;;2.83;1.50;;;;;;;10.12;49.00;97897.38;5007933;28;20037;-74
2021/01/20 11:14:29;;;;;;;2.85;1.38;;;;;;;9.51;50.14;97907.84;5000965;28;20026;-70
2021/01/20 11:16:55;;;;;;;3.83;1.42;;;;;;;9.43;50.67;97914.34;4999202;28;20133;-70
2021/01/20 11:19:21;;;;;;;4.00;1.63;;;;;;;9.44;50.91;97893.56;5000234;28;20041;-69
2021/01/20 11:21:47;;;;;;;3.10;1.60;;;;;;;9.40;50.78;97884.22;4999280;28;20044;-69
2021/01/20 11:24:17;;;;;;;3.20;1.40;;;;;;;9.23;51.28;97897.44;4998227;28;20115;-69
2021/01/20 11:26:43;;;;;;;2.90;1.58;;;;;;;9.07;51.50;97904.16;4993667;28;20037;-69
2021/01/20 11:29:08;;;;;;;3.13;1.73;;;;;;;9.15;52.27;97893.13;5004244;28;20037;-69
2021/01/20 11:31:33;;;;;;;2.75;1.58;;;;;;;9.42;51.79;97891.06;4999255;28;20773;-69
2021/01/20 11:33:59;;;;;;;5.35;1.70;;;;;;;9.33;51.58;97891.56;5003787;28;20026;-69
2021/01/20 11:36:24;;;;;;;3.65;2.13;;;;;;;9.48;51.71;97885.84;4996176;28;20087;-70
2021/01/20 11:38:49;;;;;;;5.38;2.33;;;;;;;9.25;52.06;97879.16;4994834;28;20636;-70
2021/01/20 11:41:14;;;;;;;5.55;1.92;;;;;;;8.72;53.63;97874.03;4990346;28;20036;-69
2021/01/20 11:43:40;;;;;;;3.75;1.90;;;;;;;8.92;54.02;97884.72;5004425;28;20041;-69